sensor_id;sensor_type;location;lat;lon;timestamp;pressure;altitude;pressure_sealevel;temperature;humidity
71573;BME280;59408;51.032;9.410;2023-05-03T00:00:56;100132.94;;;0.26;100.00
71573;BME280;59408;51.032;9.410;2023-05-03T00:03:23;100121.84;;;0.23;100.00
71573;BME280;59408;51.032;9.410;2023-05-03T00:05:51;100123.16;;;0.20;100.00
71573;BME280;59408;51.032;9.410;2023-05-03T00:08:18;100116.09;;;0.14;100.00
71573;BME280;59408;51.032;9.410;2023-05-03T00:10:44;100130.22;;;0.09;100.00
71573;BME280;59408;51.032;9.410;2023-05-03T00:13:11;100124.53;;;0.06;100.00
71573;BME280;59408;51.032;9.410;2023-05-03T00:15:38;100129.56;;;0.02;100.00
71573;BME280;59408;51.032;9.410;2023-05-03T00:18:04;100131.94;;;-0.01;100.00
71573;BME280;59408;51.032;9.410;2023-05-03T00:20:31;100126.00;;;-0.03;100.00
71573;BME280;59408;51.032;9.410;2023-05-03T00:22:59;100126.47;;;-0.06;100.00
71573;BME280;59408;51.032;9.410;2023-05-03T00:25:26;100126.47;;;-0.06;100.00
71573;BME280;59408;51.032;9.410;2023-05-03T00:27:52;100124.53;;;-0.11;100.00
71573;BME280;59408;51.032;9.410;2023-05-03T00:30:19;100123.72;;;-0.11;100.00
71573;BME280;59408;51.032;9.410;2023-05-03T00:32:46;100127.44;;;-0.12;100.00
71573;BME280;59408;51.032;9.410;2023-05-03T00:35:12;100122.78;;;-0.17;100.00
71573;BME280;59408;51.032;9.410;2023-05-03T00:37:39;100128.44;;;-0.18;100.00
71573;BME280;59408;51.032;9.410;2023-05-03T00:40:08;100125.16;;;-0.20;100.00
71573;BME280;59408;51.032;9.410;2023-05-03T00:42:35;100128.09;;;-0.22;100.00
71573;BME280;59408;51.032;9.410;2023-05-03T00:45:02;100122.63;;;-0.27;100.00
71573;BME280;59408;51.032;9.410;2023-05-03T00:47:28;100120.44;;;-0.30;100.00
71573;BME280;59408;51.032;9.410;2023-05-03T00:49:55;100128.94;;;-0.33;100.00
71573;BME280;59408;51.032;9.410;2023-05-03T00:52:22;100128.06;;;-0.39;100.00
71573;BME280;59408;51.032;9.410;2023-05-03T00:54:49;100120.72;;;-0.43;100.00
71573;BME280;59408;51.032;9.410;2023-05-03T00:57:17;100121.22;;;-0.46;100.00
71573;BME280;59408;51.032;9.410;2023-05-03T00:59:44;100118.19;;;-0.50;100.00
71573;BME280;59408;51.032;9.410;2023-05-03T01:02:11;100118.91;;;-0.54;100.00
71573;BME280;59408;51.032;9.410;2023-05-03T01:04:38;100123.94;;;-0.58;100.00
71573;BME280;59408;51.032;9.410;2023-05-03T01:07:14;100119.88;;;-0.60;100.00
71573;BME280;59408;51.032;9.410;2023-05-03T01:09:50;100121.41;;;-0.65;100.00
71573;BME280;59408;51.032;9.410;2023-05-03T01:12:29;100132.59;;;-0.68;100.00
71573;BME280;59408;51.032;9.410;2023-05-03T01:15:06;100132.81;;;-0.69;100.00
71573;BME280;59408;51.032;9.410;2023-05-03T01:17:40;100128.75;;;-0.72;100.00
71573;BME280;59408;51.032;9.410;2023-05-03T01:20:12;100133.06;;;-0.71;100.00
71573;BME280;59408;51.032;9.410;2023-05-03T01:22:43;100137.84;;;-0.73;100.00
71573;BME280;59408;51.032;9.410;2023-05-03T01:25:14;100135.41;;;-0.74;100.00
71573;BME280;59408;51.032;9.410;2023-05-03T01:27:41;100131.34;;;-0.77;100.00
71573;BME280;59408;51.032;9.410;2023-05-03T01:30:09;100129.72;;;-0.78;100.00
71573;BME280;59408;51.032;9.410;2023-05-03T01:32:46;100120.03;;;-0.79;100.00
71573;BME280;59408;51.032;9.410;2023-05-03T01:35:19;100123.78;;;-0.80;100.00
71573;BME280;59408;51.032;9.410;2023-05-03T01:37:46;100124.25;;;-0.83;100.00
71573;BME280;59408;51.032;9.410;2023-05-03T01:40:15;100120.41;;;-0.87;100.00
71573;BME280;59408;51.032;9.410;2023-05-03T01:42:43;100116.34;;;-0.89;100.00
71573;BME280;59408;51.032;9.410;2023-05-03T01:45:10;100124.38;;;-0.89;100.00
71573;BME280;59408;51.032;9.410;2023-05-03T01:47:37;100118.69;;;-0.93;100.00
71573;BME280;59408;51.032;9.410;2023-05-03T01:50:04;100113.00;;;-0.96;100.00
71573;BME280;59408;51.032;9.410;2023-05-03T01:52:32;100114.53;;;-1.01;100.00
71573;BME280;59408;51.032;9.410;2023-05-03T01:54:58;100118.03;;;-1.00;100.00
71573;BME280;59408;51.032;9.410;2023-05-03T01:57:26;100120.94;;;-1.02;100.00
71573;BME280;59408;51.032;9.410;2023-05-03T01:59:53;100126.06;;;-1.00;100.00
71573;BME280;59408;51.032;9.410;2023-05-03T02:02:20;100127.91;;;-1.01;100.00
71573;BME280;59408;51.032;9.410;2023-05-03T02:04:46;100120.13;;;-1.02;100.00
71573;BME280;59408;51.032;9.410;2023-05-03T02:07:13;100117.66;;;-1.04;100.00
71573;BME280;59408;51.032;9.410;2023-05-03T02:09:40;100123.84;;;-1.03;100.00
71573;BME280;59408;51.032;9.410;2023-05-03T02:12:06;100119.53;;;-1.04;100.00
71573;BME280;59408;51.032;9.410;2023-05-03T02:14:34;100116.28;;;-1.06;100.00
71573;BME280;59408;51.032;9.410;2023-05-03T02:17:01;100114.53;;;-1.12;100.00
71573;BME280;59408;51.032;9.410;2023-05-03T02:19:28;100124.66;;;-1.14;100.00
71573;BME280;59408;51.032;9.410;2023-05-03T02:21:55;100124.91;;;-1.16;100.00
71573;BME280;59408;51.032;9.410;2023-05-03T02:24:22;100128.06;;;-1.19;100.00
71573;BME280;59408;51.032;9.410;2023-05-03T02:26:48;100128.53;;;-1.22;100.00
71573;BME280;59408;51.032;9.410;2023-05-03T02:29:15;100133.75;;;-1.27;100.00
71573;BME280;59408;51.032;9.410;2023-05-03T02:31:43;100146.00;;;-1.31;100.00
71573;BME280;59408;51.032;9.410;2023-05-03T02:34:09;100142.94;;;-1.34;100.00
71573;BME280;59408;51.032;9.410;2023-05-03T02:36:36;100144.47;;;-1.39;100.00
71573;BME280;59408;51.032;9.410;2023-05-03T02:39:03;100133.66;;;-1.44;100.00
71573;BME280;59408;51.032;9.410;2023-05-03T02:41:29;100137.38;;;-1.45;100.00
71573;BME280;59408;51.032;9.410;2023-05-03T02:43:56;100141.34;;;-1.47;100.00
71573;BME280;59408;51.032;9.410;2023-05-03T02:46:22;100143.44;;;-1.49;100.00
71573;BME280;59408;51.032;9.410;2023-05-03T02:48:50;100142.84;;;-1.51;100.00
71573;BME280;59408;51.032;9.410;2023-05-03T02:51:17;100142.50;;;-1.55;100.00
71573;BME280;59408;51.032;9.410;2023-05-03T02:53:43;100142.50;;;-1.55;100.00
71573;BME280;59408;51.032;9.410;2023-05-03T02:56:10;100157.16;;;-1.57;100.00
71573;BME280;59408;51.032;9.410;2023-05-03T02:58:37;100156.56;;;-1.59;100.00
71573;BME280;59408;51.032;9.410;2023-05-03T03:01:04;100145.28;;;-1.61;100.00
71573;BME280;59408;51.032;9.410;2023-05-03T03:03:30;100156.47;;;-1.64;100.00
71573;BME280;59408;51.032;9.410;2023-05-03T03:05:58;100154.00;;;-1.66;100.00
71573;BME280;59408;51.032;9.410;2023-05-03T03:08:25;100159.38;;;-1.66;100.00
71573;BME280;59408;51.032;9.410;2023-05-03T03:10:52;100159.59;;;-1.67;100.00
71573;BME280;59408;51.032;9.410;2023-05-03T03:13:18;100152.59;;;-1.68;100.00
71573;BME280;59408;51.032;9.410;2023-05-03T03:15:45;100158.19;;;-1.70;100.00
71573;BME280;59408;51.032;9.410;2023-05-03T03:18:12;100152.25;;;-1.72;100.00
71573;BME280;59408;51.032;9.410;2023-05-03T03:20:38;100155.63;;;-1.77;100.00
71573;BME280;59408;51.032;9.410;2023-05-03T03:23:06;100163.75;;;-1.71;100.00
71573;BME280;59408;51.032;9.410;2023-05-03T03:25:33;100166.31;;;-1.77;100.00
71573;BME280;59408;51.032;9.410;2023-05-03T03:27:59;100163.88;;;-1.78;100.00
71573;BME280;59408;51.032;9.410;2023-05-03T03:30:26;100168.63;;;-1.80;100.00
71573;BME280;59408;51.032;9.410;2023-05-03T03:32:52;100162.72;;;-1.82;100.00
71573;BME280;59408;51.032;9.410;2023-05-03T03:35:19;100164.22;;;-1.86;100.00
71573;BME280;59408;51.032;9.410;2023-05-03T03:37:46;100159.91;;;-1.87;100.00
71573;BME280;59408;51.032;9.410;2023-05-03T03:40:14;100165.97;;;-1.92;100.00
71573;BME280;59408;51.032;9.410;2023-05-03T03:42:41;100163.28;;;-1.92;100.00
71573;BME280;59408;51.032;9.410;2023-05-03T03:45:08;100161.66;;;-1.93;100.00
71573;BME280;59408;51.032;9.410;2023-05-03T03:47:35;100154.66;;;-1.94;100.00
71573;BME280;59408;51.032;9.410;2023-05-03T03:50:02;100165.59;;;-1.95;100.00
71573;BME280;59408;51.032;9.410;2023-05-03T03:52:30;100169.53;;;-1.98;100.00
71573;BME280;59408;51.032;9.410;2023-05-03T03:54:57;100165.00;;;-1.97;100.00
71573;BME280;59408;51.032;9.410;2023-05-03T03:57:25;100162.81;;;-2.00;100.00
71573;BME280;59408;51.032;9.410;2023-05-03T03:59:51;100168.94;;;-2.00;100.00
71573;BME280;59408;51.032;9.410;2023-05-03T04:02:18;100167.78;;;-2.04;100.00
71573;BME280;59408;51.032;9.410;2023-05-03T04:04:44;100170.44;;;-2.04;100.00
71573;BME280;59408;51.032;9.410;2023-05-03T04:07:11;100165.31;;;-2.05;100.00
71573;BME280;59408;51.032;9.410;2023-05-03T04:09:38;100167.78;;;-2.04;100.00
71573;BME280;59408;51.032;9.410;2023-05-03T04:12:05;100172.09;;;-2.03;100.00
71573;BME280;59408;51.032;9.410;2023-05-03T04:14:33;100166.75;;;-2.03;100.00
71573;BME280;59408;51.032;9.410;2023-05-03T04:16:59;100165.69;;;-2.02;100.00
71573;BME280;59408;51.032;9.410;2023-05-03T04:19:26;100168.94;;;-2.00;100.00
71573;BME280;59408;51.032;9.410;2023-05-03T04:21:53;100170.34;;;-1.97;100.00
71573;BME280;59408;51.032;9.410;2023-05-03T04:24:19;100174.66;;;-1.96;100.00
71573;BME280;59408;51.032;9.410;2023-05-03T04:26:46;100172.78;;;-1.96;100.00
71573;BME280;59408;51.032;9.410;2023-05-03T04:29:12;100177.09;;;-1.95;100.00
71573;BME280;59408;51.032;9.410;2023-05-03T04:31:41;100175.84;;;-1.92;100.00
71573;BME280;59408;51.032;9.410;2023-05-03T04:34:07;100178.25;;;-1.91;100.00
71573;BME280;59408;51.032;9.410;2023-05-03T04:36:34;100179.44;;;-1.87;100.00
71573;BME280;59408;51.032;9.410;2023-05-03T04:39:00;100181.06;;;-1.86;100.00
71573;BME280;59408;51.032;9.410;2023-05-03T04:41:27;100180.63;;;-1.83;100.00
71573;BME280;59408;51.032;9.410;2023-05-03T04:43:53;100176.66;;;-1.80;100.00
71573;BME280;59408;51.032;9.410;2023-05-03T04:46:20;100177.03;;;-1.77;100.00
71573;BME280;59408;51.032;9.410;2023-05-03T04:48:48;100179.00;;;-1.72;100.00
71573;BME280;59408;51.032;9.410;2023-05-03T04:51:15;100170.06;;;-1.66;100.00
71573;BME280;59408;51.032;9.410;2023-05-03T04:53:42;100176.56;;;-1.62;100.00
71573;BME280;59408;51.032;9.410;2023-05-03T04:56:08;100179.16;;;-1.55;100.00
71573;BME280;59408;51.032;9.410;2023-05-03T04:58:35;100181.94;;;-1.50;100.00
71573;BME280;59408;51.032;9.410;2023-05-03T05:01:02;100175.09;;;-1.46;100.00
71573;BME280;59408;51.032;9.410;2023-05-03T05:03:28;100173.34;;;-1.41;100.00
71573;BME280;59408;51.032;9.410;2023-05-03T05:05:57;100177.88;;;-1.29;100.00
71573;BME280;59408;51.032;9.410;2023-05-03T05:08:23;100180.88;;;-1.26;100.00
71573;BME280;59408;51.032;9.410;2023-05-03T05:10:50;100185.09;;;-1.18;100.00
71573;BME280;59408;51.032;9.410;2023-05-03T05:13:16;100182.28;;;-1.12;100.00
71573;BME280;59408;51.032;9.410;2023-05-03T05:15:43;100190.31;;;-1.00;100.00
71573;BME280;59408;51.032;9.410;2023-05-03T05:18:10;100193.78;;;-0.88;100.00
71573;BME280;59408;51.032;9.410;2023-05-03T05:20:36;100188.28;;;-0.81;100.00
71573;BME280;59408;51.032;9.410;2023-05-03T05:23:04;100185.25;;;-0.73;100.00
71573;BME280;59408;51.032;9.410;2023-05-03T05:25:31;100189.19;;;-0.64;100.00
71573;BME280;59408;51.032;9.410;2023-05-03T05:27:57;100192.31;;;-0.55;100.00
71573;BME280;59408;51.032;9.410;2023-05-03T05:30:24;100193.06;;;-0.43;100.00
71573;BME280;59408;51.032;9.410;2023-05-03T05:32:51;100194.31;;;-0.34;100.00
71573;BME280;59408;51.032;9.410;2023-05-03T05:35:18;100203.50;;;-0.18;100.00
71573;BME280;59408;51.032;9.410;2023-05-03T05:37:44;100208.78;;;-0.07;100.00
71573;BME280;59408;51.032;9.410;2023-05-03T05:40:13;100202.31;;;0.06;100.00
71573;BME280;59408;51.032;9.410;2023-05-03T05:42:40;100199.91;;;0.21;100.00
71573;BME280;59408;51.032;9.410;2023-05-03T05:45:07;100197.72;;;0.35;100.00
71573;BME280;59408;51.032;9.410;2023-05-03T05:47:34;100192.84;;;0.48;100.00
71573;BME280;59408;51.032;9.410;2023-05-03T05:50:00;100191.19;;;0.64;100.00
71573;BME280;59408;51.032;9.410;2023-05-03T05:52:27;100200.09;;;0.81;100.00
71573;BME280;59408;51.032;9.410;2023-05-03T05:54:54;100185.00;;;0.97;100.00
71573;BME280;59408;51.032;9.410;2023-05-03T05:57:22;100192.19;;;1.13;100.00
71573;BME280;59408;51.032;9.410;2023-05-03T05:59:48;100199.38;;;1.30;100.00
71573;BME280;59408;51.032;9.410;2023-05-03T06:02:15;100194.22;;;1.45;100.00
71573;BME280;59408;51.032;9.410;2023-05-03T06:04:42;100198.72;;;1.61;100.00
71573;BME280;59408;51.032;9.410;2023-05-03T06:07:09;100197.56;;;1.79;100.00
71573;BME280;59408;51.032;9.410;2023-05-03T06:09:35;100197.50;;;2.00;100.00
71573;BME280;59408;51.032;9.410;2023-05-03T06:12:02;100191.75;;;2.19;97.80
71573;BME280;59408;51.032;9.410;2023-05-03T06:14:30;100200.00;;;2.34;96.39
71573;BME280;59408;51.032;9.410;2023-05-03T06:16:57;100195.84;;;2.53;95.74
71573;BME280;59408;51.032;9.410;2023-05-03T06:19:24;100182.78;;;2.72;94.56
71573;BME280;59408;51.032;9.410;2023-05-03T06:21:50;100191.28;;;2.91;93.52
71573;BME280;59408;51.032;9.410;2023-05-03T06:24:17;100183.56;;;3.09;92.75
71573;BME280;59408;51.032;9.410;2023-05-03T06:26:44;100180.69;;;3.31;93.08
71573;BME280;59408;51.032;9.410;2023-05-03T06:29:10;100183.75;;;3.50;91.50
71573;BME280;59408;51.032;9.410;2023-05-03T06:31:38;100190.03;;;3.71;90.39
71573;BME280;59408;51.032;9.410;2023-05-03T06:34:05;100201.16;;;3.95;88.88
71573;BME280;59408;51.032;9.410;2023-05-03T06:36:35;100202.28;;;4.19;88.65
71573;BME280;59408;51.032;9.410;2023-05-03T06:39:01;100195.03;;;4.45;88.71
71573;BME280;59408;51.032;9.410;2023-05-03T06:41:29;100195.00;;;4.70;86.88
71573;BME280;59408;51.032;9.410;2023-05-03T06:43:56;100200.69;;;4.99;86.73
71573;BME280;59408;51.032;9.410;2023-05-03T06:46:22;100197.06;;;5.29;87.20
71573;BME280;59408;51.032;9.410;2023-05-03T06:48:50;100193.19;;;5.60;86.34
71573;BME280;59408;51.032;9.410;2023-05-03T06:51:17;100197.38;;;5.87;82.40
71573;BME280;59408;51.032;9.410;2023-05-03T06:53:43;100193.91;;;6.20;81.19
71573;BME280;59408;51.032;9.410;2023-05-03T06:56:10;100194.78;;;6.49;79.73
71573;BME280;59408;51.032;9.410;2023-05-03T06:58:37;100187.59;;;6.69;76.86
71573;BME280;59408;51.032;9.410;2023-05-03T07:01:03;100187.69;;;6.87;77.09
71573;BME280;59408;51.032;9.410;2023-05-03T07:03:31;100199.00;;;6.95;75.06
71573;BME280;59408;51.032;9.410;2023-05-03T07:05:59;100196.16;;;7.10;74.79
71573;BME280;59408;51.032;9.410;2023-05-03T07:08:26;100192.19;;;7.26;73.78
71573;BME280;59408;51.032;9.410;2023-05-03T07:10:52;100205.06;;;7.39;73.00
71573;BME280;59408;51.032;9.410;2023-05-03T07:13:19;100205.22;;;7.72;71.94
71573;BME280;59408;51.032;9.410;2023-05-03T07:15:45;100203.28;;;7.96;71.50
71573;BME280;59408;51.032;9.410;2023-05-03T07:18:12;100189.78;;;8.10;70.01
71573;BME280;59408;51.032;9.410;2023-05-03T07:20:39;100202.91;;;8.21;70.72
71573;BME280;59408;51.032;9.410;2023-05-03T07:23:08;100201.22;;;8.44;69.07
71573;BME280;59408;51.032;9.410;2023-05-03T07:25:34;100197.50;;;8.72;69.00
71573;BME280;59408;51.032;9.410;2023-05-03T07:28:01;100191.78;;;8.88;66.10
71573;BME280;59408;51.032;9.410;2023-05-03T07:30:27;100196.63;;;9.04;62.01
71573;BME280;59408;51.032;9.410;2023-05-03T07:32:54;100191.53;;;9.17;64.13
71573;BME280;59408;51.032;9.410;2023-05-03T07:35:21;100183.66;;;9.15;64.31
71573;BME280;59408;51.032;9.410;2023-05-03T07:37:48;100193.66;;;9.47;63.51
71573;BME280;59408;51.032;9.410;2023-05-03T07:40:16;100186.91;;;9.58;63.60
71573;BME280;59408;51.032;9.410;2023-05-03T07:42:42;100183.25;;;9.76;62.69
71573;BME280;59408;51.032;9.410;2023-05-03T07:45:09;100180.22;;;9.78;60.51
71573;BME280;59408;51.032;9.410;2023-05-03T07:47:36;100182.63;;;9.93;62.07
71573;BME280;59408;51.032;9.410;2023-05-03T07:50:03;100186.41;;;10.19;59.66
71573;BME280;59408;51.032;9.410;2023-05-03T07:52:34;100187.69;;;10.22;61.11
71573;BME280;59408;51.032;9.410;2023-05-03T07:55:01;100187.16;;;10.56;60.39
71573;BME280;59408;51.032;9.410;2023-05-03T07:57:29;100194.28;;;10.66;60.06
71573;BME280;59408;51.032;9.410;2023-05-03T07:59:56;100185.09;;;10.84;60.58
71573;BME280;59408;51.032;9.410;2023-05-03T08:02:22;100186.81;;;11.02;61.23
71573;BME280;59408;51.032;9.410;2023-05-03T08:04:49;100183.69;;;11.17;59.45
71573;BME280;59408;51.032;9.410;2023-05-03T08:07:16;100184.69;;;11.30;57.90
71573;BME280;59408;51.032;9.410;2023-05-03T08:09:43;100182.47;;;11.32;56.38
71573;BME280;59408;51.032;9.410;2023-05-03T08:12:09;100180.06;;;11.39;55.47
71573;BME280;59408;51.032;9.410;2023-05-03T08:14:37;100177.25;;;11.53;55.96
71573;BME280;59408;51.032;9.410;2023-05-03T08:17:04;100178.94;;;11.97;57.80
71573;BME280;59408;51.032;9.410;2023-05-03T08:19:30;100177.81;;;12.06;57.00
71573;BME280;59408;51.032;9.410;2023-05-03T08:21:57;100173.34;;;12.36;52.99
71573;BME280;59408;51.032;9.410;2023-05-03T08:24:23;100179.66;;;12.20;53.80
71573;BME280;59408;51.032;9.410;2023-05-03T08:26:50;100176.72;;;12.25;53.17
71573;BME280;59408;51.032;9.410;2023-05-03T08:29:17;100164.16;;;12.41;54.65
71573;BME280;59408;51.032;9.410;2023-05-03T08:31:45;100168.16;;;12.69;54.61
71573;BME280;59408;51.032;9.410;2023-05-03T08:34:11;100178.09;;;12.91;51.53
71573;BME280;59408;51.032;9.410;2023-05-03T08:36:38;100171.00;;;12.99;53.81
71573;BME280;59408;51.032;9.410;2023-05-03T08:39:04;100170.44;;;13.14;54.01
71573;BME280;59408;51.032;9.410;2023-05-03T08:41:32;100161.34;;;12.93;52.82
71573;BME280;59408;51.032;9.410;2023-05-03T08:44:22;100158.22;;;13.03;51.36
71573;BME280;59408;51.032;9.410;2023-05-03T08:47:02;100165.69;;;13.40;54.15
71573;BME280;59408;51.032;9.410;2023-05-03T08:49:30;100161.81;;;13.71;51.07
71573;BME280;59408;51.032;9.410;2023-05-03T08:51:56;100157.78;;;13.97;53.72
71573;BME280;59408;51.032;9.410;2023-05-03T08:54:24;100159.28;;;13.86;52.45
71573;BME280;59408;51.032;9.410;2023-05-03T08:56:51;100166.66;;;14.36;50.68
71573;BME280;59408;51.032;9.410;2023-05-03T08:59:17;100158.25;;;14.20;50.57
71573;BME280;59408;51.032;9.410;2023-05-03T09:01:44;100163.84;;;14.65;50.21
71573;BME280;59408;51.032;9.410;2023-05-03T09:04:12;100157.38;;;14.94;49.14
71573;BME280;59408;51.032;9.410;2023-05-03T09:06:39;100157.56;;;14.65;48.38
71573;BME280;59408;51.032;9.410;2023-05-03T09:09:06;100162.06;;;14.82;50.49
71573;BME280;59408;51.032;9.410;2023-05-03T09:11:34;100164.56;;;14.87;47.86
71573;BME280;59408;51.032;9.410;2023-05-03T09:14:08;100165.13;;;14.80;48.77
71573;BME280;59408;51.032;9.410;2023-05-03T09:16:35;100161.09;;;15.11;46.76
71573;BME280;59408;51.032;9.410;2023-05-03T09:19:03;100165.44;;;15.48;44.68
71573;BME280;59408;51.032;9.410;2023-05-03T09:21:31;100153.19;;;15.58;49.74
71573;BME280;59408;51.032;9.410;2023-05-03T09:23:58;100161.13;;;15.47;47.63
71573;BME280;59408;51.032;9.410;2023-05-03T09:26:29;100172.78;;;15.32;45.63
71573;BME280;59408;51.032;9.410;2023-05-03T09:28:57;100164.44;;;15.28;44.96
71573;BME280;59408;51.032;9.410;2023-05-03T09:31:25;100174.19;;;15.62;45.53
71573;BME280;59408;51.032;9.410;2023-05-03T09:33:52;100168.03;;;15.65;44.00
71573;BME280;59408;51.032;9.410;2023-05-03T09:36:18;100163.97;;;15.38;47.90
71573;BME280;59408;51.032;9.410;2023-05-03T09:38:47;100153.69;;;15.72;45.76
71573;BME280;59408;51.032;9.410;2023-05-03T09:41:14;100153.47;;;15.65;44.11
71573;BME280;59408;51.032;9.410;2023-05-03T09:43:48;100152.25;;;16.02;47.70
71573;BME280;59408;51.032;9.410;2023-05-03T09:46:14;100147.28;;;16.48;47.11
71573;BME280;59408;51.032;9.410;2023-05-03T09:48:41;100140.75;;;16.68;43.86
71573;BME280;59408;51.032;9.410;2023-05-03T09:51:08;100144.53;;;16.48;46.32
71573;BME280;59408;51.032;9.410;2023-05-03T09:53:36;100139.78;;;16.76;42.73
71573;BME280;59408;51.032;9.410;2023-05-03T09:56:07;100143.94;;;16.98;43.68
71573;BME280;59408;51.032;9.410;2023-05-03T09:58:34;100135.38;;;16.59;44.12
71573;BME280;59408;51.032;9.410;2023-05-03T10:01:01;100137.88;;;16.92;47.02
71573;BME280;59408;51.032;9.410;2023-05-03T10:03:33;100132.59;;;17.50;44.94
71573;BME280;59408;51.032;9.410;2023-05-03T10:06:02;100123.47;;;17.46;44.36
71573;BME280;59408;51.032;9.410;2023-05-03T10:08:32;100124.97;;;17.44;45.57
71573;BME280;59408;51.032;9.410;2023-05-03T10:11:01;100124.25;;;17.62;43.25
71573;BME280;59408;51.032;9.410;2023-05-03T10:13:30;100133.50;;;17.54;44.03
71573;BME280;59408;51.032;9.410;2023-05-03T10:16:02;100132.53;;;18.17;43.00
71573;BME280;59408;51.032;9.410;2023-05-03T10:18:31;100125.88;;;17.48;43.38
71573;BME280;59408;51.032;9.410;2023-05-03T10:21:02;100130.69;;;17.86;46.39
71573;BME280;59408;51.032;9.410;2023-05-03T10:23:32;100131.91;;;17.53;39.93
71573;BME280;59408;51.032;9.410;2023-05-03T10:26:14;100127.59;;;18.06;41.09
71573;BME280;59408;51.032;9.410;2023-05-03T10:28:43;100122.56;;;18.70;40.63
71573;BME280;59408;51.032;9.410;2023-05-03T10:34:22;100120.91;;;18.65;41.94
71573;BME280;59408;51.032;9.410;2023-05-03T10:36:50;100123.22;;;18.44;39.70
71573;BME280;59408;51.032;9.410;2023-05-03T10:39:17;100121.41;;;19.16;38.70
71573;BME280;59408;51.032;9.410;2023-05-03T10:41:46;100119.47;;;18.52;37.65
71573;BME280;59408;51.032;9.410;2023-05-03T10:44:26;100114.63;;;18.68;41.33
71573;BME280;59408;51.032;9.410;2023-05-03T10:46:53;100113.97;;;19.21;41.65
71573;BME280;59408;51.032;9.410;2023-05-03T10:49:21;100119.50;;;19.21;40.77
71573;BME280;59408;51.032;9.410;2023-05-03T10:51:49;100121.28;;;19.55;37.84
71573;BME280;59408;51.032;9.410;2023-05-03T10:54:15;100119.66;;;19.54;39.58
71573;BME280;59408;51.032;9.410;2023-05-03T10:56:55;100115.75;;;19.59;38.67
71573;BME280;59408;51.032;9.410;2023-05-03T10:59:22;100117.72;;;20.14;37.68
71573;BME280;59408;51.032;9.410;2023-05-03T11:01:51;100117.13;;;19.98;39.68
71573;BME280;59408;51.032;9.410;2023-05-03T11:04:31;100112.97;;;20.15;36.81
71573;BME280;59408;51.032;9.410;2023-05-03T11:07:00;100107.06;;;20.16;38.89
71573;BME280;59408;51.032;9.410;2023-05-03T11:09:30;100102.34;;;20.91;36.53
71573;BME280;59408;51.032;9.410;2023-05-03T11:12:02;100101.03;;;20.37;35.63
71573;BME280;59408;51.032;9.410;2023-05-03T11:14:31;100102.44;;;20.24;39.41
71573;BME280;59408;51.032;9.410;2023-05-03T11:17:01;100103.91;;;20.85;39.18
71573;BME280;59408;51.032;9.410;2023-05-03T11:19:30;100096.41;;;20.52;35.55
71573;BME280;59408;51.032;9.410;2023-05-03T11:22:00;100097.25;;;20.96;37.24
71573;BME280;59408;51.032;9.410;2023-05-03T11:24:29;100091.78;;;21.58;34.27
71573;BME280;59408;51.032;9.410;2023-05-03T11:26:57;100092.81;;;21.29;34.75
71573;BME280;59408;51.032;9.410;2023-05-03T11:29:24;100084.53;;;21.36;37.35
71573;BME280;59408;51.032;9.410;2023-05-03T11:31:51;100078.84;;;20.37;33.41
71573;BME280;59408;51.032;9.410;2023-05-03T11:34:19;100072.50;;;20.74;36.14
71573;BME280;59408;51.032;9.410;2023-05-03T11:36:45;100072.16;;;20.82;39.64
71573;BME280;59408;51.032;9.410;2023-05-03T11:39:12;100071.00;;;20.83;38.65
71573;BME280;59408;51.032;9.410;2023-05-03T11:41:39;100068.44;;;21.63;37.69
71573;BME280;59408;51.032;9.410;2023-05-03T11:44:06;100060.81;;;21.49;38.09
71573;BME280;59408;51.032;9.410;2023-05-03T11:46:43;100068.47;;;21.70;35.49
71573;BME280;59408;51.032;9.410;2023-05-03T11:49:16;100073.56;;;21.61;34.21
71573;BME280;59408;51.032;9.410;2023-05-03T11:51:44;100065.97;;;21.47;36.28
71573;BME280;59408;51.032;9.410;2023-05-03T11:54:16;100072.38;;;21.62;36.53
71573;BME280;59408;51.032;9.410;2023-05-03T11:56:54;100063.59;;;21.53;36.21
71573;BME280;59408;51.032;9.410;2023-05-03T11:59:32;100059.63;;;22.37;36.90
71573;BME280;59408;51.032;9.410;2023-05-03T12:02:02;100065.97;;;22.27;36.45
71573;BME280;59408;51.032;9.410;2023-05-03T12:04:41;100069.47;;;22.09;38.42
71573;BME280;59408;51.032;9.410;2023-05-03T12:07:33;100060.34;;;22.09;34.99
71573;BME280;59408;51.032;9.410;2023-05-03T12:10:12;100065.56;;;22.28;32.33
71573;BME280;59408;51.032;9.410;2023-05-03T12:12:54;100065.66;;;22.60;31.58
71573;BME280;59408;51.032;9.410;2023-05-03T12:15:27;100064.00;;;22.38;32.67
71573;BME280;59408;51.032;9.410;2023-05-03T12:17:56;100054.56;;;21.66;33.98
71573;BME280;59408;51.032;9.410;2023-05-03T12:20:27;100054.88;;;22.37;34.04
71573;BME280;59408;51.032;9.410;2023-05-03T12:23:16;100047.00;;;23.35;33.41
71573;BME280;59408;51.032;9.410;2023-05-03T12:25:43;100045.81;;;23.08;33.84
71573;BME280;59408;51.032;9.410;2023-05-03T12:28:10;100044.16;;;23.60;36.25
71573;BME280;59408;51.032;9.410;2023-05-03T12:30:46;100031.50;;;23.16;32.29
71573;BME280;59408;51.032;9.410;2023-05-03T12:33:13;100033.00;;;22.29;36.49
71573;BME280;59408;51.032;9.410;2023-05-03T12:35:49;100027.84;;;22.27;32.77
71573;BME280;59408;51.032;9.410;2023-05-03T12:38:20;100026.34;;;22.69;36.60
71573;BME280;59408;51.032;9.410;2023-05-03T12:40:50;100020.38;;;23.20;33.98
71573;BME280;59408;51.032;9.410;2023-05-03T12:43:17;100017.22;;;23.21;35.47
71573;BME280;59408;51.032;9.410;2023-05-03T12:45:43;100017.59;;;23.23;33.67
71573;BME280;59408;51.032;9.410;2023-05-03T12:48:24;100016.78;;;22.95;31.33
71573;BME280;59408;51.032;9.410;2023-05-03T12:50:51;100008.84;;;22.97;34.03
71573;BME280;59408;51.032;9.410;2023-05-03T12:53:17;100007.28;;;22.85;31.08
71573;BME280;59408;51.032;9.410;2023-05-03T12:55:46;100000.09;;;22.87;30.83